Terminal Aerodrome Forecast
Issued by NWS Sterling, VA

Current Version | Previous Version | Graphics & Text | Print | Product List | Glossary On
Versions: 1 2 3 4 5 6 7 8 9 10 11 12 13 14 15 16 17 18 19 20 21 22 23 24 25 26
403
FTUS41 KLWX 170241 AAA
TAFIAD
TAF AMD
KIAD 170241Z 1703/1806 31012KT P6SM BKN035
     FM170600 31008KT P6SM SCT035
     FM171000 31008KT P6SM FEW250
     FM172100 27004KT P6SM FEW140
     FM172300 20004KT P6SM SCT140=

USA.gov is the U.S. government's official web portal to all federal, state and local government web resources and services.